Trieben Airport LOGI

Flugplatz Daten

Name: Trieben Airport

Ident: LOGI

Lat: 47,49420166

Long: 14,49750042

Platzhöhe: 2283 ft

IataCode:

City: Trieben

Metar

2021/01/05 07:30
WMKP 050730Z 06010KT 020V100 9999 FEW020 29/25 Q1007 HASLIZA ABDUL HALIM PUSAT PENGAJIAN TEKNOLOGI INDUSTRI/ UNIVERSITI SAINS MALAYSIA/ 11800 MINDEN/

Taf

Gewünschte Webcam nicht vorhanden? Dann fügen Sie eine hinzu. Sie wird dann so schnell wie möglich freigeschaltet
Url: Title: